sensor_id;sensor_type;location;lat;lon;timestamp;P1;durP1;ratioP1;P2;durP2;ratioP2
7931;SDS011;4011;49.424;10.894;2023-07-09T00:00:06;11.20;;;6.63;;
7931;SDS011;4011;49.424;10.894;2023-07-09T00:05:34;8.95;;;6.38;;
7931;SDS011;4011;49.424;10.894;2023-07-09T00:10:57;9.85;;;6.45;;
7931;SDS011;4011;49.424;10.894;2023-07-09T00:16:20;9.02;;;6.35;;
7931;SDS011;4011;49.424;10.894;2023-07-09T00:21:43;9.70;;;6.80;;
7931;SDS011;4011;49.424;10.894;2023-07-09T00:27:09;8.45;;;6.50;;
7931;SDS011;4011;49.424;10.894;2023-07-09T00:32:31;9.07;;;6.95;;
7931;SDS011;4011;49.424;10.894;2023-07-09T00:37:53;10.68;;;7.28;;
7931;SDS011;4011;49.424;10.894;2023-07-09T00:43:16;10.88;;;7.05;;
7931;SDS011;4011;49.424;10.894;2023-07-09T00:48:37;8.95;;;6.60;;
7931;SDS011;4011;49.424;10.894;2023-07-09T00:54:01;10.95;;;7.28;;
7931;SDS011;4011;49.424;10.894;2023-07-09T00:59:28;9.48;;;6.43;;
7931;SDS011;4011;49.424;10.894;2023-07-09T01:04:51;10.63;;;7.35;;
7931;SDS011;4011;49.424;10.894;2023-07-09T01:10:14;9.30;;;6.93;;
7931;SDS011;4011;49.424;10.894;2023-07-09T01:15:37;9.70;;;6.43;;
7931;SDS011;4011;49.424;10.894;2023-07-09T01:21:01;10.43;;;6.85;;
7931;SDS011;4011;49.424;10.894;2023-07-09T01:26:24;8.73;;;6.10;;
7931;SDS011;4011;49.424;10.894;2023-07-09T01:31:45;9.52;;;6.93;;
7931;SDS011;4011;49.424;10.894;2023-07-09T01:37:08;10.98;;;7.32;;
7931;SDS011;4011;49.424;10.894;2023-07-09T01:42:30;8.85;;;7.00;;
7931;SDS011;4011;49.424;10.894;2023-07-09T01:47:52;10.00;;;6.53;;
7931;SDS011;4011;49.424;10.894;2023-07-09T01:53:17;9.73;;;6.68;;
7931;SDS011;4011;49.424;10.894;2023-07-09T01:58:39;10.23;;;6.93;;
7931;SDS011;4011;49.424;10.894;2023-07-09T02:04:02;9.10;;;7.28;;
7931;SDS011;4011;49.424;10.894;2023-07-09T02:09:25;8.70;;;6.97;;
7931;SDS011;4011;49.424;10.894;2023-07-09T02:14:46;10.68;;;6.20;;
7931;SDS011;4011;49.424;10.894;2023-07-09T02:20:08;11.20;;;6.75;;
7931;SDS011;4011;49.424;10.894;2023-07-09T02:25:33;8.80;;;6.90;;
7931;SDS011;4011;49.424;10.894;2023-07-09T02:30:54;10.55;;;7.00;;
7931;SDS011;4011;49.424;10.894;2023-07-09T02:36:16;8.35;;;6.68;;
7931;SDS011;4011;49.424;10.894;2023-07-09T02:41:39;10.75;;;7.60;;
7931;SDS011;4011;49.424;10.894;2023-07-09T02:47:01;9.18;;;7.53;;
7931;SDS011;4011;49.424;10.894;2023-07-09T02:52:22;10.68;;;6.53;;
7931;SDS011;4011;49.424;10.894;2023-07-09T02:57:45;10.07;;;7.07;;
7931;SDS011;4011;49.424;10.894;2023-07-09T03:03:06;9.65;;;6.38;;
7931;SDS011;4011;49.424;10.894;2023-07-09T03:08:28;10.35;;;7.10;;
7931;SDS011;4011;49.424;10.894;2023-07-09T03:13:50;9.68;;;6.63;;
7931;SDS011;4011;49.424;10.894;2023-07-09T03:19:13;9.30;;;6.68;;
7931;SDS011;4011;49.424;10.894;2023-07-09T03:24:35;9.10;;;6.93;;
7931;SDS011;4011;49.424;10.894;2023-07-09T03:30:00;9.23;;;6.35;;
7931;SDS011;4011;49.424;10.894;2023-07-09T03:35:23;10.68;;;7.47;;
7931;SDS011;4011;49.424;10.894;2023-07-09T03:40:45;9.05;;;6.80;;
7931;SDS011;4011;49.424;10.894;2023-07-09T03:46:08;9.85;;;6.75;;
7931;SDS011;4011;49.424;10.894;2023-07-09T03:51:29;9.35;;;6.90;;
7931;SDS011;4011;49.424;10.894;2023-07-09T03:56:51;8.98;;;6.82;;
7931;SDS011;4011;49.424;10.894;2023-07-09T04:02:14;8.82;;;6.70;;
7931;SDS011;4011;49.424;10.894;2023-07-09T04:07:36;8.10;;;6.88;;
7931;SDS011;4011;49.424;10.894;2023-07-09T04:12:58;8.23;;;6.75;;
7931;SDS011;4011;49.424;10.894;2023-07-09T04:18:21;8.57;;;7.22;;
7931;SDS011;4011;49.424;10.894;2023-07-09T04:23:42;9.57;;;6.53;;
7931;SDS011;4011;49.424;10.894;2023-07-09T04:29:04;10.23;;;8.20;;
7931;SDS011;4011;49.424;10.894;2023-07-09T04:34:28;10.27;;;8.00;;
7931;SDS011;4011;49.424;10.894;2023-07-09T04:39:49;10.88;;;8.23;;
7931;SDS011;4011;49.424;10.894;2023-07-09T04:45:11;11.10;;;7.60;;
7931;SDS011;4011;49.424;10.894;2023-07-09T04:50:35;10.93;;;7.35;;
7931;SDS011;4011;49.424;10.894;2023-07-09T04:55:57;12.43;;;7.80;;
7931;SDS011;4011;49.424;10.894;2023-07-09T05:01:18;10.98;;;8.45;;
7931;SDS011;4011;49.424;10.894;2023-07-09T05:06:41;11.43;;;8.38;;
7931;SDS011;4011;49.424;10.894;2023-07-09T05:12:03;10.68;;;7.95;;
7931;SDS011;4011;49.424;10.894;2023-07-09T05:17:25;11.23;;;9.02;;
7931;SDS011;4011;49.424;10.894;2023-07-09T05:22:47;10.15;;;7.90;;
7931;SDS011;4011;49.424;10.894;2023-07-09T05:28:09;10.25;;;7.63;;
7931;SDS011;4011;49.424;10.894;2023-07-09T05:33:31;11.15;;;8.55;;
7931;SDS011;4011;49.424;10.894;2023-07-09T05:38:54;12.65;;;8.75;;
7931;SDS011;4011;49.424;10.894;2023-07-09T05:44:16;11.73;;;9.20;;
7931;SDS011;4011;49.424;10.894;2023-07-09T05:49:38;9.98;;;8.20;;
7931;SDS011;4011;49.424;10.894;2023-07-09T05:55:01;11.18;;;8.45;;
7931;SDS011;4011;49.424;10.894;2023-07-09T06:00:23;10.73;;;8.57;;
7931;SDS011;4011;49.424;10.894;2023-07-09T06:05:44;11.40;;;8.85;;
7931;SDS011;4011;49.424;10.894;2023-07-09T06:11:07;10.95;;;8.55;;
7931;SDS011;4011;49.424;10.894;2023-07-09T06:16:28;9.90;;;7.90;;
7931;SDS011;4011;49.424;10.894;2023-07-09T06:21:50;10.38;;;7.93;;
7931;SDS011;4011;49.424;10.894;2023-07-09T06:27:13;9.63;;;8.05;;
7931;SDS011;4011;49.424;10.894;2023-07-09T06:32:34;12.48;;;8.73;;
7931;SDS011;4011;49.424;10.894;2023-07-09T06:37:56;10.32;;;7.65;;
7931;SDS011;4011;49.424;10.894;2023-07-09T06:43:20;11.20;;;7.47;;
7931;SDS011;4011;49.424;10.894;2023-07-09T06:48:42;9.57;;;7.15;;
7931;SDS011;4011;49.424;10.894;2023-07-09T06:54:03;11.50;;;7.57;;
7931;SDS011;4011;49.424;10.894;2023-07-09T06:59:28;8.55;;;7.65;;
7931;SDS011;4011;49.424;10.894;2023-07-09T07:04:50;11.57;;;7.38;;
7931;SDS011;4011;49.424;10.894;2023-07-09T07:10:11;12.50;;;7.90;;
7931;SDS011;4011;49.424;10.894;2023-07-09T07:15:36;12.25;;;7.68;;
7931;SDS011;4011;49.424;10.894;2023-07-09T07:26:19;10.63;;;7.35;;
7931;SDS011;4011;49.424;10.894;2023-07-09T07:31:42;10.88;;;7.90;;
7931;SDS011;4011;49.424;10.894;2023-07-09T07:37:03;11.57;;;7.50;;
7931;SDS011;4011;49.424;10.894;2023-07-09T07:42:25;10.00;;;7.18;;
7931;SDS011;4011;49.424;10.894;2023-07-09T07:47:47;9.88;;;7.28;;
7931;SDS011;4011;49.424;10.894;2023-07-09T07:53:11;9.23;;;6.90;;
7931;SDS011;4011;49.424;10.894;2023-07-09T07:58:33;8.68;;;6.75;;
7931;SDS011;4011;49.424;10.894;2023-07-09T08:03:56;9.68;;;7.20;;
7931;SDS011;4011;49.424;10.894;2023-07-09T08:09:17;8.73;;;6.10;;
7931;SDS011;4011;49.424;10.894;2023-07-09T08:14:40;8.30;;;6.05;;
7931;SDS011;4011;49.424;10.894;2023-07-09T08:20:04;8.05;;;5.85;;
7931;SDS011;4011;49.424;10.894;2023-07-09T08:25:25;6.75;;;5.18;;
7931;SDS011;4011;49.424;10.894;2023-07-09T08:30:46;7.38;;;5.28;;
7931;SDS011;4011;49.424;10.894;2023-07-09T08:36:09;7.40;;;4.63;;
7931;SDS011;4011;49.424;10.894;2023-07-09T08:41:39;5.82;;;4.35;;
7931;SDS011;4011;49.424;10.894;2023-07-09T08:47:02;6.95;;;4.45;;
7931;SDS011;4011;49.424;10.894;2023-07-09T08:52:30;6.68;;;3.92;;
7931;SDS011;4011;49.424;10.894;2023-07-09T08:57:54;6.13;;;4.20;;
7931;SDS011;4011;49.424;10.894;2023-07-09T09:03:21;5.70;;;3.80;;
7931;SDS011;4011;49.424;10.894;2023-07-09T09:08:47;6.40;;;3.97;;
7931;SDS011;4011;49.424;10.894;2023-07-09T09:14:19;5.53;;;3.67;;
7931;SDS011;4011;49.424;10.894;2023-07-09T09:19:45;6.30;;;3.55;;
7931;SDS011;4011;49.424;10.894;2023-07-09T09:25:12;5.68;;;3.35;;
7931;SDS011;4011;49.424;10.894;2023-07-09T09:30:37;5.10;;;3.40;;
7931;SDS011;4011;49.424;10.894;2023-07-09T09:36:01;5.65;;;3.70;;
7931;SDS011;4011;49.424;10.894;2023-07-09T09:41:25;5.20;;;3.30;;
7931;SDS011;4011;49.424;10.894;2023-07-09T09:46:47;5.03;;;3.55;;
7931;SDS011;4011;49.424;10.894;2023-07-09T09:52:10;6.57;;;3.50;;
7931;SDS011;4011;49.424;10.894;2023-07-09T09:57:34;6.75;;;3.50;;
7931;SDS011;4011;49.424;10.894;2023-07-09T10:02:56;6.18;;;3.33;;
7931;SDS011;4011;49.424;10.894;2023-07-09T10:08:22;5.18;;;3.70;;
7931;SDS011;4011;49.424;10.894;2023-07-09T10:13:47;5.22;;;3.40;;
7931;SDS011;4011;49.424;10.894;2023-07-09T10:19:12;5.88;;;3.65;;
7931;SDS011;4011;49.424;10.894;2023-07-09T10:24:41;5.95;;;3.75;;
7931;SDS011;4011;49.424;10.894;2023-07-09T10:30:15;7.35;;;3.63;;
7931;SDS011;4011;49.424;10.894;2023-07-09T10:35:38;5.93;;;3.63;;
7931;SDS011;4011;49.424;10.894;2023-07-09T10:41:02;5.95;;;3.80;;
7931;SDS011;4011;49.424;10.894;2023-07-09T10:46:30;7.00;;;3.85;;
7931;SDS011;4011;49.424;10.894;2023-07-09T10:51:53;6.63;;;3.90;;
7931;SDS011;4011;49.424;10.894;2023-07-09T10:57:18;5.95;;;4.00;;
7931;SDS011;4011;49.424;10.894;2023-07-09T11:02:42;6.95;;;3.47;;
7931;SDS011;4011;49.424;10.894;2023-07-09T11:08:05;6.32;;;4.18;;
7931;SDS011;4011;49.424;10.894;2023-07-09T11:13:28;5.75;;;3.38;;
7931;SDS011;4011;49.424;10.894;2023-07-09T11:18:55;5.45;;;3.45;;
7931;SDS011;4011;49.424;10.894;2023-07-09T11:24:26;6.07;;;3.63;;
7931;SDS011;4011;49.424;10.894;2023-07-09T11:29:55;5.97;;;3.42;;
7931;SDS011;4011;49.424;10.894;2023-07-09T11:35:20;4.88;;;3.10;;
7931;SDS011;4011;49.424;10.894;2023-07-09T11:40:45;6.50;;;3.53;;
7931;SDS011;4011;49.424;10.894;2023-07-09T11:46:10;5.45;;;3.42;;
7931;SDS011;4011;49.424;10.894;2023-07-09T11:51:41;5.07;;;3.35;;
7931;SDS011;4011;49.424;10.894;2023-07-09T11:57:07;5.65;;;3.53;;
7931;SDS011;4011;49.424;10.894;2023-07-09T12:02:32;5.45;;;3.25;;
7931;SDS011;4011;49.424;10.894;2023-07-09T12:07:57;5.53;;;3.75;;
7931;SDS011;4011;49.424;10.894;2023-07-09T12:13:19;6.50;;;3.13;;
7931;SDS011;4011;49.424;10.894;2023-07-09T12:18:40;5.30;;;3.60;;
7931;SDS011;4011;49.424;10.894;2023-07-09T12:24:03;4.70;;;3.22;;
7931;SDS011;4011;49.424;10.894;2023-07-09T12:29:37;5.10;;;3.40;;
7931;SDS011;4011;49.424;10.894;2023-07-09T12:34:59;7.03;;;3.58;;
7931;SDS011;4011;49.424;10.894;2023-07-09T12:40:22;4.90;;;3.15;;
7931;SDS011;4011;49.424;10.894;2023-07-09T12:45:47;6.00;;;3.30;;
7931;SDS011;4011;49.424;10.894;2023-07-09T12:51:09;6.70;;;3.35;;
7931;SDS011;4011;49.424;10.894;2023-07-09T12:56:32;6.38;;;3.53;;
7931;SDS011;4011;49.424;10.894;2023-07-09T13:01:55;5.82;;;3.45;;
7931;SDS011;4011;49.424;10.894;2023-07-09T13:07:24;6.18;;;3.65;;
7931;SDS011;4011;49.424;10.894;2023-07-09T13:12:49;4.95;;;3.60;;
7931;SDS011;4011;49.424;10.894;2023-07-09T13:18:11;6.00;;;3.35;;
7931;SDS011;4011;49.424;10.894;2023-07-09T13:23:33;6.28;;;3.92;;
7931;SDS011;4011;49.424;10.894;2023-07-09T13:28:56;5.30;;;3.20;;
7931;SDS011;4011;49.424;10.894;2023-07-09T13:34:18;6.50;;;3.80;;
7931;SDS011;4011;49.424;10.894;2023-07-09T13:39:40;6.80;;;3.53;;
7931;SDS011;4011;49.424;10.894;2023-07-09T13:45:04;6.32;;;3.40;;
7931;SDS011;4011;49.424;10.894;2023-07-09T13:50:26;4.72;;;3.30;;
7931;SDS011;4011;49.424;10.894;2023-07-09T13:55:47;6.32;;;3.55;;
7931;SDS011;4011;49.424;10.894;2023-07-09T14:01:12;6.68;;;3.85;;
7931;SDS011;4011;49.424;10.894;2023-07-09T14:06:34;6.30;;;3.72;;
7931;SDS011;4011;49.424;10.894;2023-07-09T14:11:55;7.63;;;3.88;;
7931;SDS011;4011;49.424;10.894;2023-07-09T14:17:18;5.38;;;3.40;;
7931;SDS011;4011;49.424;10.894;2023-07-09T14:22:40;5.75;;;3.60;;
7931;SDS011;4011;49.424;10.894;2023-07-09T14:28:04;5.43;;;3.22;;
7931;SDS011;4011;49.424;10.894;2023-07-09T14:33:27;5.57;;;3.60;;
7931;SDS011;4011;49.424;10.894;2023-07-09T14:38:48;5.20;;;3.50;;
7931;SDS011;4011;49.424;10.894;2023-07-09T14:44:15;6.00;;;3.65;;
7931;SDS011;4011;49.424;10.894;2023-07-09T14:49:43;6.45;;;3.80;;
7931;SDS011;4011;49.424;10.894;2023-07-09T14:55:05;5.60;;;3.47;;
7931;SDS011;4011;49.424;10.894;2023-07-09T15:00:27;5.90;;;3.50;;
7931;SDS011;4011;49.424;10.894;2023-07-09T15:05:50;6.00;;;3.70;;
7931;SDS011;4011;49.424;10.894;2023-07-09T15:11:12;5.75;;;3.60;;
7931;SDS011;4011;49.424;10.894;2023-07-09T15:16:33;6.40;;;3.30;;
7931;SDS011;4011;49.424;10.894;2023-07-09T15:21:56;5.82;;;3.72;;
7931;SDS011;4011;49.424;10.894;2023-07-09T15:27:17;5.75;;;3.55;;
7931;SDS011;4011;49.424;10.894;2023-07-09T15:32:39;5.57;;;3.40;;
7931;SDS011;4011;49.424;10.894;2023-07-09T15:38:03;6.20;;;3.50;;
7931;SDS011;4011;49.424;10.894;2023-07-09T15:43:25;6.53;;;4.03;;
7931;SDS011;4011;49.424;10.894;2023-07-09T15:48:46;5.75;;;4.00;;
7931;SDS011;4011;49.424;10.894;2023-07-09T15:54:12;6.05;;;3.38;;
7931;SDS011;4011;49.424;10.894;2023-07-09T15:59:35;6.00;;;3.90;;
7931;SDS011;4011;49.424;10.894;2023-07-09T16:04:57;6.07;;;3.83;;
7931;SDS011;4011;49.424;10.894;2023-07-09T16:10:21;5.75;;;3.78;;
7931;SDS011;4011;49.424;10.894;2023-07-09T16:15:43;6.32;;;3.42;;
7931;SDS011;4011;49.424;10.894;2023-07-09T16:21:04;5.85;;;3.85;;
7931;SDS011;4011;49.424;10.894;2023-07-09T16:26:27;7.10;;;3.80;;
7931;SDS011;4011;49.424;10.894;2023-07-09T16:31:51;6.28;;;3.80;;
7931;SDS011;4011;49.424;10.894;2023-07-09T16:37:15;6.72;;;3.67;;
7931;SDS011;4011;49.424;10.894;2023-07-09T16:42:39;7.00;;;3.85;;
7931;SDS011;4011;49.424;10.894;2023-07-09T16:48:00;6.63;;;4.10;;
7931;SDS011;4011;49.424;10.894;2023-07-09T16:53:21;6.57;;;3.60;;
7931;SDS011;4011;49.424;10.894;2023-07-09T16:58:44;6.07;;;3.97;;
7931;SDS011;4011;49.424;10.894;2023-07-09T17:04:09;5.78;;;3.40;;
7931;SDS011;4011;49.424;10.894;2023-07-09T17:09:36;5.93;;;4.05;;
7931;SDS011;4011;49.424;10.894;2023-07-09T17:14:58;5.28;;;3.83;;
7931;SDS011;4011;49.424;10.894;2023-07-09T17:20:20;5.32;;;3.72;;
7931;SDS011;4011;49.424;10.894;2023-07-09T17:25:42;6.15;;;4.10;;
7931;SDS011;4011;49.424;10.894;2023-07-09T17:31:05;5.53;;;3.70;;
7931;SDS011;4011;49.424;10.894;2023-07-09T17:36:26;5.57;;;3.50;;
7931;SDS011;4011;49.424;10.894;2023-07-09T17:41:48;6.32;;;3.38;;
7931;SDS011;4011;49.424;10.894;2023-07-09T17:47:12;5.57;;;3.95;;
7931;SDS011;4011;49.424;10.894;2023-07-09T17:52:34;6.20;;;4.03;;
7931;SDS011;4011;49.424;10.894;2023-07-09T17:57:56;6.38;;;3.80;;
7931;SDS011;4011;49.424;10.894;2023-07-09T18:03:19;7.68;;;4.03;;
7931;SDS011;4011;49.424;10.894;2023-07-09T18:08:42;5.85;;;3.42;;
7931;SDS011;4011;49.424;10.894;2023-07-09T18:14:04;5.53;;;3.55;;
7931;SDS011;4011;49.424;10.894;2023-07-09T18:19:27;6.25;;;3.80;;
7931;SDS011;4011;49.424;10.894;2023-07-09T18:24:49;5.82;;;3.95;;
7931;SDS011;4011;49.424;10.894;2023-07-09T18:30:14;6.55;;;4.00;;
7931;SDS011;4011;49.424;10.894;2023-07-09T18:35:37;6.72;;;3.55;;
7931;SDS011;4011;49.424;10.894;2023-07-09T18:40:59;6.00;;;3.70;;
7931;SDS011;4011;49.424;10.894;2023-07-09T18:46:20;5.55;;;3.63;;
7931;SDS011;4011;49.424;10.894;2023-07-09T18:51:43;5.82;;;3.85;;
7931;SDS011;4011;49.424;10.894;2023-07-09T18:57:13;5.10;;;3.50;;
7931;SDS011;4011;49.424;10.894;2023-07-09T19:02:34;4.95;;;3.50;;
7931;SDS011;4011;49.424;10.894;2023-07-09T19:07:57;5.90;;;3.80;;
7931;SDS011;4011;49.424;10.894;2023-07-09T19:13:19;5.25;;;4.07;;
7931;SDS011;4011;49.424;10.894;2023-07-09T19:18:41;5.72;;;3.95;;
7931;SDS011;4011;49.424;10.894;2023-07-09T19:24:07;5.50;;;3.40;;
7931;SDS011;4011;49.424;10.894;2023-07-09T19:29:30;5.93;;;3.90;;
7931;SDS011;4011;49.424;10.894;2023-07-09T19:34:54;5.63;;;3.60;;
7931;SDS011;4011;49.424;10.894;2023-07-09T19:40:18;6.28;;;3.70;;
7931;SDS011;4011;49.424;10.894;2023-07-09T19:45:41;6.95;;;4.20;;
7931;SDS011;4011;49.424;10.894;2023-07-09T19:51:03;8.55;;;4.25;;
7931;SDS011;4011;49.424;10.894;2023-07-09T19:56:26;8.30;;;4.30;;
7931;SDS011;4011;49.424;10.894;2023-07-09T20:01:48;6.68;;;3.90;;
7931;SDS011;4011;49.424;10.894;2023-07-09T20:07:10;8.63;;;4.78;;
7931;SDS011;4011;49.424;10.894;2023-07-09T20:12:33;8.38;;;4.70;;
7931;SDS011;4011;49.424;10.894;2023-07-09T20:17:56;7.15;;;4.47;;
7931;SDS011;4011;49.424;10.894;2023-07-09T20:23:17;6.85;;;4.78;;
7931;SDS011;4011;49.424;10.894;2023-07-09T20:28:42;7.97;;;4.60;;
7931;SDS011;4011;49.424;10.894;2023-07-09T20:34:09;8.68;;;4.63;;
7931;SDS011;4011;49.424;10.894;2023-07-09T20:39:33;8.82;;;4.68;;
7931;SDS011;4011;49.424;10.894;2023-07-09T20:44:56;8.50;;;4.80;;
7931;SDS011;4011;49.424;10.894;2023-07-09T20:50:18;8.93;;;4.78;;
7931;SDS011;4011;49.424;10.894;2023-07-09T20:55:40;7.85;;;4.57;;
7931;SDS011;4011;49.424;10.894;2023-07-09T21:01:03;7.47;;;4.50;;
7931;SDS011;4011;49.424;10.894;2023-07-09T21:06:25;9.00;;;4.82;;
7931;SDS011;4011;49.424;10.894;2023-07-09T21:11:47;7.95;;;4.40;;
7931;SDS011;4011;49.424;10.894;2023-07-09T21:17:12;7.15;;;4.45;;
7931;SDS011;4011;49.424;10.894;2023-07-09T21:22:35;8.20;;;4.63;;
7931;SDS011;4011;49.424;10.894;2023-07-09T21:27:56;10.45;;;5.97;;
7931;SDS011;4011;49.424;10.894;2023-07-09T21:33:23;10.75;;;6.00;;
7931;SDS011;4011;49.424;10.894;2023-07-09T21:38:46;8.63;;;5.78;;
7931;SDS011;4011;49.424;10.894;2023-07-09T21:44:07;9.35;;;5.72;;
7931;SDS011;4011;49.424;10.894;2023-07-09T21:49:31;9.48;;;5.43;;
7931;SDS011;4011;49.424;10.894;2023-07-09T21:54:55;7.45;;;5.20;;
7931;SDS011;4011;49.424;10.894;2023-07-09T22:00:17;8.20;;;5.25;;
7931;SDS011;4011;49.424;10.894;2023-07-09T22:05:40;8.20;;;5.22;;
7931;SDS011;4011;49.424;10.894;2023-07-09T22:11:02;8.65;;;5.18;;
7931;SDS011;4011;49.424;10.894;2023-07-09T22:16:25;9.43;;;4.88;;
7931;SDS011;4011;49.424;10.894;2023-07-09T22:21:48;8.00;;;4.78;;
7931;SDS011;4011;49.424;10.894;2023-07-09T22:27:10;9.63;;;4.95;;
7931;SDS011;4011;49.424;10.894;2023-07-09T22:32:32;8.70;;;4.78;;
7931;SDS011;4011;49.424;10.894;2023-07-09T22:37:55;7.15;;;4.95;;
7931;SDS011;4011;49.424;10.894;2023-07-09T22:43:16;8.18;;;5.07;;
7931;SDS011;4011;49.424;10.894;2023-07-09T22:48:37;8.40;;;5.00;;
7931;SDS011;4011;49.424;10.894;2023-07-09T22:54:04;8.73;;;5.05;;
7931;SDS011;4011;49.424;10.894;2023-07-09T22:59:27;8.15;;;4.78;;
7931;SDS011;4011;49.424;10.894;2023-07-09T23:04:48;8.68;;;5.38;;
7931;SDS011;4011;49.424;10.894;2023-07-09T23:10:11;8.43;;;4.88;;
7931;SDS011;4011;49.424;10.894;2023-07-09T23:15:33;8.50;;;5.47;;
7931;SDS011;4011;49.424;10.894;2023-07-09T23:20:54;8.25;;;5.53;;
7931;SDS011;4011;49.424;10.894;2023-07-09T23:26:18;7.53;;;4.80;;
7931;SDS011;4011;49.424;10.894;2023-07-09T23:31:40;8.27;;;5.45;;
7931;SDS011;4011;49.424;10.894;2023-07-09T23:37:02;8.55;;;5.45;;
7931;SDS011;4011;49.424;10.894;2023-07-09T23:42:25;8.43;;;4.90;;
7931;SDS011;4011;49.424;10.894;2023-07-09T23:47:47;8.30;;;4.80;;
7931;SDS011;4011;49.424;10.894;2023-07-09T23:53:12;8.32;;;5.63;;
7931;SDS011;4011;49.424;10.894;2023-07-09T23:58:39;7.50;;;4.80;;
